Time;durP1;ratioP1;P1;durP2;ratioP2;P2;SDS_P1;SDS_P2;PMS_P1;PMS_P2;Temp;Humidity;BMP_temperature;BMP_pressure;BME280_temperature;BME280_humidity;BME280_pressure;Samples;Min_cycle;Max_cycle;Signal;HPM_P1;HPM_P2
2024/02/29 00:00:31;;;;;;;3.17;2.10;;;;;;;;;;6137942;29;20299;-60
2024/02/29 00:03:35;;;;;;;4.43;1.90;;;;;;;;;;6137865;29;20290;-60
2024/02/29 00:06:40;;;;;;;3.07;1.90;;;;;;;;;;6137534;29;20354;-60
2024/02/29 00:09:44;;;;;;;4.93;2.10;;;;;;;;;;6137769;29;20310;-60
2024/02/29 00:12:49;;;;;;;2.70;1.80;;;;;;;;;;6090869;29;20249;-60
2024/02/29 00:15:54;;;;;;;2.60;1.93;;;;;;;;;;6090870;29;20300;-60
2024/02/29 00:18:58;;;;;;;4.90;2.10;;;;;;;;;;6090906;29;20311;-60
2024/02/29 00:22:02;;;;;;;3.03;2.23;;;;;;;;;;6091475;29;20305;-60
2024/02/29 00:25:06;;;;;;;4.20;2.00;;;;;;;;;;6090425;29;20288;-60
2024/02/29 00:28:12;;;;;;;7.13;2.28;;;;;;;;;;6090510;29;20292;-60
2024/02/29 00:31:16;;;;;;;2.10;2.00;;;;;;;;;;6090989;29;20308;-60
2024/02/29 00:34:21;;;;;;;2.97;2.00;;;;;;;;;;6094131;29;20584;-60
2024/02/29 00:37:24;;;;;;;2.73;2.40;;;;;;;;;;6095249;29;20327;-60
2024/02/29 00:40:29;;;;;;;4.90;2.30;;;;;;;;;;6094375;29;20304;-60
2024/02/29 00:43:34;;;;;;;6.83;2.57;;;;;;;;;;6094415;29;20295;-60
2024/02/29 00:46:39;;;;;;;4.43;2.27;;;;;;;;;;6094620;29;20588;-59
2024/02/29 00:49:43;;;;;;;8.57;2.53;;;;;;;;;;6094539;29;20296;-59
2024/02/29 00:52:46;;;;;;;4.13;2.50;;;;;;;;;;6095035;29;20300;-59
2024/02/29 00:55:51;;;;;;;3.27;2.47;;;;;;;;;;6094469;29;20501;-60
2024/02/29 00:58:56;;;;;;;6.43;2.67;;;;;;;;;;6094463;29;20304;-60
2024/02/29 01:02:00;;;;;;;6.13;2.50;;;;;;;;;;6093196;29;20305;-60
2024/02/29 01:05:05;;;;;;;4.10;2.33;;;;;;;;;;6094401;29;20561;-59
2024/02/29 01:08:08;;;;;;;3.00;2.67;;;;;;;;;;6093829;29;20297;-60
2024/02/29 01:11:13;;;;;;;7.20;2.70;;;;;;;;;;6117554;29;20303;-59
2024/02/29 01:14:18;;;;;;;3.43;2.10;;;;;;;;;;6134858;29;20305;-60
2024/02/29 01:17:24;;;;;;;2.23;2.13;;;;;;;;;;6094348;29;20371;-60
2024/02/29 01:20:28;;;;;;;3.67;2.40;;;;;;;;;;6093863;29;20308;-60
2024/02/29 01:23:33;;;;;;;5.67;2.63;;;;;;;;;;6094137;29;20308;-60
2024/02/29 01:26:37;;;;;;;7.35;2.83;;;;;;;;;;6094273;29;20579;-60
2024/02/29 01:29:42;;;;;;;3.80;2.55;;;;;;;;;;6092204;29;20320;-60
2024/02/29 01:32:46;;;;;;;5.90;2.67;;;;;;;;;;6093142;29;20483;-61
2024/02/29 01:35:50;;;;;;;5.23;2.80;;;;;;;;;;6093857;29;20616;-60
2024/02/29 01:38:54;;;;;;;4.70;2.50;;;;;;;;;;6093423;29;20292;-60
2024/02/29 01:41:58;;;;;;;4.80;2.70;;;;;;;;;;6094346;29;20292;-60
2024/02/29 01:45:04;;;;;;;9.07;3.33;;;;;;;;;;6092934;29;20308;-60
2024/02/29 01:48:09;;;;;;;5.07;2.60;;;;;;;;;;6093443;29;20307;-60
2024/02/29 01:51:14;;;;;;;5.33;2.60;;;;;;;;;;6093840;29;20391;-60
2024/02/29 01:54:17;;;;;;;4.40;2.50;;;;;;;;;;6093465;29;20300;-60
2024/02/29 01:57:21;;;;;;;3.27;2.97;;;;;;;;;;6093653;29;20300;-60
2024/02/29 02:00:26;;;;;;;3.90;3.60;;;;;;;;;;6092963;29;20387;-60
2024/02/29 02:03:30;;;;;;;4.63;3.20;;;;;;;;;;6093040;29;20291;-60
2024/02/29 02:06:34;;;;;;;4.97;3.00;;;;;;;;;;6093376;29;20303;-60
2024/02/29 02:09:41;;;;;;;2.67;2.47;;;;;;;;;;6091900;29;20300;-61
2024/02/29 02:12:47;;;;;;;5.43;2.70;;;;;;;;;;6139775;29;20260;-60
2024/02/29 02:15:53;;;;;;;8.87;2.83;;;;;;;;;;6139621;29;20295;-60
2024/02/29 02:18:57;;;;;;;5.13;2.70;;;;;;;;;;6139619;29;20295;-60
2024/02/29 02:22:04;;;;;;;7.27;3.10;;;;;;;;;;6139679;29;20310;-60
2024/02/29 02:25:08;;;;;;;6.73;3.03;;;;;;;;;;6139507;29;20310;-60
2024/02/29 02:28:12;;;;;;;6.33;3.10;;;;;;;;;;6139180;29;20575;-59
2024/02/29 02:31:16;;;;;;;6.10;2.90;;;;;;;;;;6139959;29;20586;-60
2024/02/29 02:34:21;;;;;;;11.77;3.40;;;;;;;;;;6138932;29;20295;-60
2024/02/29 02:37:26;;;;;;;3.93;3.00;;;;;;;;;;6139712;29;20303;-60
2024/02/29 02:40:31;;;;;;;7.50;3.00;;;;;;;;;;6139289;29;20299;-60
2024/02/29 02:43:35;;;;;;;11.43;3.40;;;;;;;;;;6139335;29;20299;-60
2024/02/29 02:46:39;;;;;;;11.13;3.57;;;;;;;;;;6139939;29;20311;-60
2024/02/29 02:49:43;;;;;;;5.43;3.03;;;;;;;;;;6139430;29;20299;-60
2024/02/29 02:52:48;;;;;;;6.30;3.60;;;;;;;;;;6139831;29;20311;-60
2024/02/29 02:55:52;;;;;;;6.60;3.30;;;;;;;;;;6139158;29;20455;-60
2024/02/29 02:58:55;;;;;;;6.50;3.23;;;;;;;;;;6139057;29;20377;-60
2024/02/29 03:01:59;;;;;;;9.70;3.40;;;;;;;;;;6139378;29;20318;-60
2024/02/29 03:05:04;;;;;;;8.03;3.77;;;;;;;;;;6139021;29;20294;-60
2024/02/29 03:08:10;;;;;;;6.93;3.60;;;;;;;;;;6138783;29;20600;-60
2024/02/29 03:11:14;;;;;;;13.13;3.90;;;;;;;;;;6127477;29;20307;-60
2024/02/29 03:14:18;;;;;;;8.77;3.53;;;;;;;;;;6115205;29;20607;-60
2024/02/29 03:17:22;;;;;;;6.00;3.50;;;;;;;;;;6115540;29;20303;-60
2024/02/29 03:20:27;;;;;;;4.20;3.38;;;;;;;;;;6114882;29;20303;-60
2024/02/29 03:23:32;;;;;;;8.17;3.67;;;;;;;;;;6115077;29;20292;-60
2024/02/29 03:26:36;;;;;;;6.78;3.53;;;;;;;;;;6115812;29;20299;-60
2024/02/29 03:29:40;;;;;;;4.57;3.27;;;;;;;;;;6114960;29;20303;-60
2024/02/29 03:32:44;;;;;;;6.27;3.37;;;;;;;;;;6115365;29;20295;-60
2024/02/29 03:35:48;;;;;;;4.67;3.90;;;;;;;;;;6114683;29;20295;-60
2024/02/29 03:38:53;;;;;;;8.60;3.80;;;;;;;;;;6114454;29;20300;-60
2024/02/29 03:41:57;;;;;;;9.25;4.03;;;;;;;;;;6115153;29;20299;-60
2024/02/29 03:45:01;;;;;;;9.02;3.53;;;;;;;;;;6114853;29;20303;-60
2024/02/29 03:48:05;;;;;;;9.37;3.90;;;;;;;;;;6114360;29;20307;-61
2024/02/29 03:51:09;;;;;;;9.67;3.57;;;;;;;;;;6114909;29;20292;-60
2024/02/29 03:54:14;;;;;;;9.37;3.57;;;;;;;;;;6114835;29;20295;-60
2024/02/29 03:57:18;;;;;;;14.65;3.60;;;;;;;;;;6115260;29;20299;-60
2024/02/29 04:00:22;;;;;;;11.10;4.30;;;;;;;;;;6114095;29;20316;-60
2024/02/29 04:03:26;;;;;;;12.47;4.40;;;;;;;;;;6117931;29;20295;-60
2024/02/29 04:06:30;;;;;;;12.60;3.67;;;;;;;;;;6129408;29;20318;-59
2024/02/29 04:09:36;;;;;;;12.63;4.60;;;;;;;;;;6120454;29;20295;-60
2024/02/29 04:12:40;;;;;;;8.57;3.87;;;;;;;;;;6130836;29;20279;-60
2024/02/29 04:15:44;;;;;;;13.00;3.83;;;;;;;;;;6142864;29;20302;-60
2024/02/29 04:18:52;;;;;;;9.40;3.90;;;;;;;;;;6142865;29;20454;-60
2024/02/29 04:21:56;;;;;;;7.60;4.00;;;;;;;;;;6124548;29;20591;-60
2024/02/29 04:25:01;;;;;;;9.80;3.67;;;;;;;;;;6118447;29;20290;-60
2024/02/29 04:28:06;;;;;;;5.70;3.63;;;;;;;;;;6119454;29;20294;-60
2024/02/29 04:31:10;;;;;;;6.67;3.93;;;;;;;;;;6118557;29;20464;-60
2024/02/29 04:34:15;;;;;;;12.87;4.30;;;;;;;;;;6118459;29;20292;-60
2024/02/29 04:37:19;;;;;;;9.87;3.73;;;;;;;;;;6123895;29;20315;-60
2024/02/29 04:40:26;;;;;;;10.83;4.07;;;;;;;;;;6141845;29;20303;-60
2024/02/29 04:43:30;;;;;;;7.33;4.03;;;;;;;;;;6142241;29;20299;-60
2024/02/29 04:46:34;;;;;;;7.77;3.70;;;;;;;;;;6141743;29;20307;-60
2024/02/29 04:49:38;;;;;;;6.47;3.87;;;;;;;;;;6141383;29;20299;-60
2024/02/29 04:52:41;;;;;;;15.80;4.83;;;;;;;;;;6141814;29;20371;-60
2024/02/29 04:55:47;;;;;;;10.63;4.13;;;;;;;;;;6141259;29;20306;-60
2024/02/29 04:58:51;;;;;;;7.17;4.07;;;;;;;;;;6142000;29;20298;-60
2024/02/29 05:01:55;;;;;;;4.87;3.40;;;;;;;;;;6141010;29;20303;-60
2024/02/29 05:04:59;;;;;;;10.80;4.00;;;;;;;;;;6141350;29;20549;-59
2024/02/29 05:08:03;;;;;;;11.27;3.93;;;;;;;;;;6140354;29;20300;-59
2024/02/29 05:11:10;;;;;;;8.60;3.97;;;;;;;;;;6138932;29;20302;-60
2024/02/29 05:14:14;;;;;;;12.27;4.47;;;;;;;;;;6117517;29;20300;-60
2024/02/29 05:17:18;;;;;;;5.90;4.17;;;;;;;;;;6117836;29;20314;-60
2024/02/29 05:20:23;;;;;;;6.80;4.13;;;;;;;;;;6116604;29;20307;-60
2024/02/29 05:23:27;;;;;;;12.37;4.40;;;;;;;;;;6117991;29;20362;-60
2024/02/29 05:26:32;;;;;;;11.13;4.70;;;;;;;;;;6117569;29;20323;-60
2024/02/29 05:29:36;;;;;;;8.83;4.40;;;;;;;;;;6117125;29;20318;-59
2024/02/29 05:32:40;;;;;;;11.43;4.17;;;;;;;;;;6117926;29;20310;-59
2024/02/29 05:35:48;;;;;;;6.27;4.30;;;;;;;;;;6117821;29;20311;-60
2024/02/29 05:38:52;;;;;;;10.37;5.03;;;;;;;;;;6117898;29;20497;-60
2024/02/29 05:41:57;;;;;;;14.87;4.63;;;;;;;;;;6117129;29;20307;-60
2024/02/29 05:45:01;;;;;;;11.73;5.33;;;;;;;;;;6117002;29;20302;-60
2024/02/29 05:48:06;;;;;;;11.80;4.77;;;;;;;;;;6117783;29;20305;-60
2024/02/29 05:51:11;;;;;;;7.50;4.70;;;;;;;;;;6115040;29;20602;-60
2024/02/29 05:54:15;;;;;;;16.97;6.83;;;;;;;;;;6115599;29;20492;-61
2024/02/29 05:57:20;;;;;;;11.07;5.27;;;;;;;;;;6117617;29;20303;-60
2024/02/29 06:00:24;;;;;;;9.53;4.93;;;;;;;;;;6117017;29;20299;-60
2024/02/29 06:03:29;;;;;;;10.33;5.27;;;;;;;;;;6117384;29;20314;-59
2024/02/29 06:06:32;;;;;;;10.40;5.63;;;;;;;;;;6116442;29;20612;-59
2024/02/29 06:09:36;;;;;;;11.83;5.60;;;;;;;;;;6116730;29;20291;-59
2024/02/29 06:12:42;;;;;;;9.60;5.53;;;;;;;;;;6130520;29;20294;-60
2024/02/29 06:15:45;;;;;;;10.73;5.80;;;;;;;;;;6139822;29;20314;-60
2024/02/29 06:18:50;;;;;;;11.33;5.87;;;;;;;;;;6140398;29;20250;-60
2024/02/29 06:21:53;;;;;;;9.80;5.97;;;;;;;;;;6139803;29;20513;-60
2024/02/29 06:24:57;;;;;;;13.77;5.63;;;;;;;;;;6139348;29;20459;-60
2024/02/29 06:28:04;;;;;;;12.03;6.23;;;;;;;;;;6140041;29;20306;-60
2024/02/29 06:31:08;;;;;;;11.90;6.07;;;;;;;;;;6139074;29;20298;-60
2024/02/29 06:34:12;;;;;;;11.67;6.37;;;;;;;;;;6139652;29;20585;-60
2024/02/29 06:37:16;;;;;;;18.20;6.43;;;;;;;;;;6140216;29;20461;-60
2024/02/29 06:40:21;;;;;;;14.13;6.40;;;;;;;;;;6139819;29;20306;-60
2024/02/29 06:43:27;;;;;;;18.43;7.00;;;;;;;;;;6139872;29;20396;-59
2024/02/29 06:46:34;;;;;;;15.80;6.47;;;;;;;;;;6139296;29;20318;-60
2024/02/29 06:49:38;;;;;;;13.47;6.17;;;;;;;;;;6139293;29;20302;-60
2024/02/29 06:52:42;;;;;;;19.30;7.33;;;;;;;;;;6139526;29;20476;-60
2024/02/29 06:55:46;;;;;;;14.00;6.47;;;;;;;;;;6138893;29;20493;-60
2024/02/29 06:58:52;;;;;;;10.63;6.73;;;;;;;;;;6139549;29;20310;-60
2024/02/29 07:01:55;;;;;;;17.83;7.40;;;;;;;;;;6138661;29;20298;-61
2024/02/29 07:05:00;;;;;;;15.63;6.97;;;;;;;;;;6137969;29;20301;-61
2024/02/29 07:08:04;;;;;;;14.70;6.60;;;;;;;;;;6139621;29;20319;-61
2024/02/29 07:11:11;;;;;;;15.53;7.13;;;;;;;;;;6136833;29;20297;-61
2024/02/29 07:14:17;;;;;;;16.50;7.23;;;;;;;;;;6115381;29;20311;-60
2024/02/29 07:17:21;;;;;;;13.20;7.13;;;;;;;;;;6115876;29;20303;-60
2024/02/29 07:20:25;;;;;;;16.30;7.13;;;;;;;;;;6115248;29;20303;-62
2024/02/29 07:23:32;;;;;;;11.57;6.87;;;;;;;;;;6115481;29;20299;-60
2024/02/29 07:26:41;;;;;;;18.43;8.10;;;;;;;;;;6115037;29;20598;-60
2024/02/29 07:29:46;;;;;;;23.27;7.63;;;;;;;;;;6114994;29;20365;-60
2024/02/29 07:32:50;;;;;;;16.27;7.27;;;;;;;;;;6115311;29;20307;-61
2024/02/29 07:35:54;;;;;;;15.33;7.10;;;;;;;;;;6115095;29;20295;-61
2024/02/29 07:38:58;;;;;;;15.53;7.27;;;;;;;;;;6113824;29;20303;-61
2024/02/29 07:42:02;;;;;;;21.05;9.82;;;;;;;;;;6114161;29;20482;-61
2024/02/29 07:45:09;;;;;;;15.60;7.93;;;;;;;;;;6119649;29;20475;-61
2024/02/29 07:48:13;;;;;;;15.57;7.60;;;;;;;;;;6120397;29;20311;-61
2024/02/29 07:51:18;;;;;;;15.90;7.23;;;;;;;;;;6119786;29;20301;-61
2024/02/29 07:54:22;;;;;;;12.83;7.07;;;;;;;;;;6119739;29;20300;-61
2024/02/29 07:57:26;;;;;;;15.23;6.83;;;;;;;;;;6119899;29;20303;-61
2024/02/29 08:00:31;;;;;;;14.97;7.03;;;;;;;;;;6119262;29;20303;-61
2024/02/29 08:03:35;;;;;;;13.57;7.00;;;;;;;;;;6119755;29;20307;-61
2024/02/29 08:06:39;;;;;;;15.93;7.40;;;;;;;;;;6117735;29;20303;-61
2024/02/29 08:09:43;;;;;;;19.80;7.30;;;;;;;;;;6119086;29;20300;-61
2024/02/29 08:12:46;;;;;;;11.57;6.87;;;;;;;;;;6134937;29;20255;-61
2024/02/29 08:15:52;;;;;;;12.90;7.13;;;;;;;;;;6142663;29;20454;-61
2024/02/29 08:18:56;;;;;;;13.77;6.70;;;;;;;;;;6142948;29;20235;-60
2024/02/29 08:22:00;;;;;;;15.43;7.07;;;;;;;;;;6142515;29;20290;-60
2024/02/29 08:25:05;;;;;;;13.40;6.50;;;;;;;;;;6142602;29;20299;-60
2024/02/29 08:28:09;;;;;;;21.43;7.27;;;;;;;;;;6143139;29;20296;-60
2024/02/29 08:31:15;;;;;;;15.37;6.90;;;;;;;;;;6142553;29;20291;-60
2024/02/29 08:34:19;;;;;;;16.13;6.50;;;;;;;;;;6142273;29;20298;-59
2024/02/29 08:37:23;;;;;;;17.50;6.80;;;;;;;;;;6142671;29;20295;-60
2024/02/29 08:40:27;;;;;;;12.35;6.28;;;;;;;;;;6141959;29;20298;-60
2024/02/29 08:43:32;;;;;;;10.77;6.27;;;;;;;;;;6142401;29;20295;-60
2024/02/29 08:46:37;;;;;;;16.33;6.37;;;;;;;;;;6141512;29;20519;-59
2024/02/29 08:49:41;;;;;;;13.20;6.43;;;;;;;;;;6141699;29;20299;-61
2024/02/29 08:52:45;;;;;;;10.00;6.27;;;;;;;;;;6142190;29;20473;-61
2024/02/29 08:55:49;;;;;;;15.03;6.40;;;;;;;;;;6141661;29;20299;-60
2024/02/29 08:58:53;;;;;;;9.00;5.90;;;;;;;;;;6142391;29;20298;-59
2024/02/29 09:01:59;;;;;;;15.87;6.10;;;;;;;;;;6141809;29;20571;-59
2024/02/29 09:05:03;;;;;;;13.87;5.93;;;;;;;;;;6141280;29;20294;-60
2024/02/29 09:08:07;;;;;;;12.10;5.57;;;;;;;;;;6142227;29;20296;-59
2024/02/29 09:11:11;;;;;;;12.77;6.05;;;;;;;;;;6138721;29;20307;-59
2024/02/29 09:14:15;;;;;;;14.43;6.22;;;;;;;;;;6117967;29;20311;-60
2024/02/29 09:17:20;;;;;;;13.83;6.03;;;;;;;;;;6117439;29;20311;-59
2024/02/29 09:20:24;;;;;;;15.43;5.97;;;;;;;;;;6117435;29;20291;-60
2024/02/29 09:23:28;;;;;;;13.85;5.05;;;;;;;;;;6118045;29;20303;-60
2024/02/29 09:26:32;;;;;;;14.23;7.30;;;;;;;;;;6116309;29;20480;-60
2024/02/29 09:29:36;;;;;;;9.60;6.35;;;;;;;;;;6117665;29;20299;-60
2024/02/29 09:32:43;;;;;;;15.45;6.47;;;;;;;;;;6117632;29;20296;-60
2024/02/29 09:35:54;;;;;;;10.00;5.28;;;;;;;;;;6117587;29;20303;-60
2024/02/29 09:38:58;;;;;;;18.52;5.75;;;;;;;;;;6117406;29;20438;-61
2024/02/29 09:42:03;;;;;;;9.70;5.10;;;;;;;;;;6117854;29;20300;-61
2024/02/29 09:45:12;;;;;;;6.78;5.38;;;;;;;;;;6116656;29;20303;-61
2024/02/29 09:48:18;;;;;;;9.50;5.10;;;;;;;;;;6116858;29;20588;-61
2024/02/29 09:51:22;;;;;;;10.85;5.20;;;;;;;;;;6116930;29;20299;-61
2024/02/29 09:54:31;;;;;;;14.48;6.10;;;;;;;;;;6116942;29;20295;-61
2024/02/29 09:57:35;;;;;;;10.93;4.97;;;;;;;;;;6117329;29;20299;-61
2024/02/29 10:00:39;;;;;;;14.18;5.32;;;;;;;;;;6116085;29;20299;-61
2024/02/29 10:03:46;;;;;;;15.57;5.32;;;;;;;;;;6117358;29;20239;-61
2024/02/29 10:06:50;;;;;;;16.60;7.10;;;;;;;;;;6115834;29;20295;-61
2024/02/29 10:09:55;;;;;;;17.38;6.53;;;;;;;;;;6116418;29;20299;-61
2024/02/29 10:13:00;;;;;;;16.98;7.47;;;;;;;;;;6133445;29;20294;-61
2024/02/29 10:16:04;;;;;;;13.85;6.53;;;;;;;;;;6139989;29;20291;-61
2024/02/29 10:19:13;;;;;;;17.65;7.47;;;;;;;;;;6139339;29;20326;-61
2024/02/29 10:22:21;;;;;;;13.05;6.90;;;;;;;;;;6140276;29;20303;-61
2024/02/29 10:25:26;;;;;;;13.27;7.20;;;;;;;;;;6139515;29;20303;-61
2024/02/29 10:28:31;;;;;;;18.55;7.32;;;;;;;;;;6140087;29;20299;-60
2024/02/29 10:31:35;;;;;;;16.75;7.00;;;;;;;;;;6129803;29;20399;-61
2024/02/29 10:34:43;;;;;;;12.90;6.78;;;;;;;;;;6140037;29;20294;-61
2024/02/29 10:37:51;;;;;;;13.23;7.00;;;;;;;;;;6140538;29;20301;-61
2024/02/29 10:41:01;;;;;;;17.80;7.32;;;;;;;;;;6139963;29;20348;-61
2024/02/29 10:44:05;;;;;;;17.13;6.85;;;;;;;;;;6139299;29;20290;-60
2024/02/29 10:47:10;;;;;;;18.38;6.82;;;;;;;;;;6139760;29;20306;-61
2024/02/29 10:50:22;;;;;;;11.88;6.40;;;;;;;;;;6139498;29;20295;-61
2024/02/29 10:53:34;;;;;;;22.52;6.10;;;;;;;;;;6139890;29;20576;-61
2024/02/29 10:56:39;;;;;;;8.82;5.47;;;;;;;;;;6138172;29;20298;-61
2024/02/29 11:00:01;;;;;;;12.20;5.90;;;;;;;;;;6139190;29;20326;-62
2024/02/29 11:03:06;;;;;;;14.73;6.07;;;;;;;;;;6139579;29;20295;-62
2024/02/29 11:06:12;;;;;;;9.77;5.63;;;;;;;;;;6138557;29;20616;-61
2024/02/29 11:09:17;;;;;;;15.48;5.68;;;;;;;;;;6138941;29;20303;-60
2024/02/29 11:12:21;;;;;;;9.60;5.22;;;;;;;;;;6127487;29;20491;-60
2024/02/29 11:15:26;;;;;;;8.52;4.90;;;;;;;;;;6115267;29;20304;-61
2024/02/29 11:18:32;;;;;;;14.68;6.28;;;;;;;;;;6114905;29;20467;-60
2024/02/29 11:21:38;;;;;;;8.63;5.78;;;;;;;;;;6115190;29;20616;-60
2024/02/29 11:24:44;;;;;;;9.98;5.03;;;;;;;;;;6114198;29;20452;-61
2024/02/29 11:27:49;;;;;;;8.98;5.75;;;;;;;;;;6115513;29;20256;-60
2024/02/29 11:30:53;;;;;;;10.32;5.97;;;;;;;;;;6115186;29;20300;-60
2024/02/29 11:33:57;;;;;;;13.05;6.60;;;;;;;;;;6115115;29;20319;-62
2024/02/29 11:37:05;;;;;;;15.00;6.65;;;;;;;;;;6115382;29;20302;-60
2024/02/29 11:40:15;;;;;;;13.73;7.30;;;;;;;;;;6115038;29;20316;-60
2024/02/29 11:43:19;;;;;;;25.17;7.68;;;;;;;;;;6115704;29;20291;-60
2024/02/29 11:46:26;;;;;;;19.58;7.13;;;;;;;;;;6114741;29;20315;-61
2024/02/29 11:49:30;;;;;;;20.55;9.18;;;;;;;;;;6114940;29;20558;-61
2024/02/29 11:52:35;;;;;;;15.68;7.30;;;;;;;;;;6115559;29;20300;-61
2024/02/29 11:55:40;;;;;;;12.27;7.10;;;;;;;;;;6114799;29;20455;-61
2024/02/29 11:58:45;;;;;;;19.02;7.50;;;;;;;;;;6115411;29;20312;-61
2024/02/29 12:01:49;;;;;;;19.60;7.15;;;;;;;;;;6114579;29;20311;-60
2024/02/29 12:04:53;;;;;;;12.85;7.40;;;;;;;;;;6114338;29;20295;-60
2024/02/29 12:07:59;;;;;;;15.57;8.65;;;;;;;;;;6113461;29;20488;-60
2024/02/29 12:11:03;;;;;;;14.65;6.75;;;;;;;;;;6115656;29;20307;-60
2024/02/29 12:14:08;;;;;;;10.85;6.32;;;;;;;;;;6138086;29;20295;-61
2024/02/29 12:17:12;;;;;;;13.07;6.90;;;;;;;;;;6138426;29;20299;-61
2024/02/29 12:20:17;;;;;;;11.60;6.15;;;;;;;;;;6137869;29;20299;-60
2024/02/29 12:23:23;;;;;;;17.73;6.18;;;;;;;;;;6138483;29;20291;-60
2024/02/29 12:26:27;;;;;;;16.02;5.68;;;;;;;;;;6137697;29;20295;-60
2024/02/29 12:29:31;;;;;;;9.73;6.07;;;;;;;;;;6140660;29;20314;-61
2024/02/29 12:32:36;;;;;;;7.22;5.38;;;;;;;;;;6133478;29;20608;-60
2024/02/29 12:35:42;;;;;;;9.95;5.75;;;;;;;;;;6142385;29;20315;-61
2024/02/29 12:38:48;;;;;;;11.95;6.00;;;;;;;;;;6142641;29;20291;-61
2024/02/29 12:41:53;;;;;;;13.32;5.47;;;;;;;;;;6142480;29;20310;-61
2024/02/29 12:44:56;;;;;;;18.80;5.68;;;;;;;;;;6142248;29;20290;-61
2024/02/29 12:48:00;;;;;;;18.25;5.90;;;;;;;;;;6142510;29;20558;-62
2024/02/29 12:51:04;;;;;;;10.10;6.05;;;;;;;;;;6142350;29;20294;-61
2024/02/29 12:54:12;;;;;;;16.92;6.22;;;;;;;;;;6141302;29;20299;-61
2024/02/29 12:57:16;;;;;;;13.25;6.10;;;;;;;;;;6142051;29;20307;-61
2024/02/29 13:00:22;;;;;;;13.38;6.55;;;;;;;;;;6141562;29;20295;-60
2024/02/29 13:03:26;;;;;;;13.52;6.85;;;;;;;;;;6141945;29;20471;-61
2024/02/29 13:06:32;;;;;;;17.92;6.35;;;;;;;;;;6139926;29;20319;-61
2024/02/29 13:09:37;;;;;;;11.15;6.35;;;;;;;;;;6141035;29;20287;-61
2024/02/29 13:12:42;;;;;;;19.65;6.57;;;;;;;;;;6126472;29;20272;-61
2024/02/29 13:15:51;;;;;;;11.95;7.03;;;;;;;;;;6113042;29;20296;-61
2024/02/29 13:18:58;;;;;;;12.88;6.55;;;;;;;;;;6093784;29;20305;-62
2024/02/29 13:22:03;;;;;;;14.38;5.68;;;;;;;;;;6077606;29;20476;-60
2024/02/29 13:25:09;;;;;;;15.32;5.40;;;;;;;;;;6093941;29;20296;-60
2024/02/29 13:28:13;;;;;;;6.45;4.72;;;;;;;;;;6094240;29;20296;-61
2024/02/29 13:31:17;;;;;;;6.97;5.22;;;;;;;;;;6093576;29;20301;-59
2024/02/29 13:34:21;;;;;;;9.88;4.95;;;;;;;;;;6093608;29;20296;-60
2024/02/29 13:37:26;;;;;;;11.45;4.88;;;;;;;;;;6094379;29;20300;-60
2024/02/29 13:40:31;;;;;;;6.97;4.70;;;;;;;;;;6092518;29;20304;-60
2024/02/29 13:43:36;;;;;;;7.68;4.88;;;;;;;;;;6093908;29;20304;-60
2024/02/29 13:46:40;;;;;;;11.23;5.30;;;;;;;;;;6092942;29;20320;-60
2024/02/29 13:49:44;;;;;;;10.30;5.10;;;;;;;;;;6093502;29;20300;-60
2024/02/29 13:52:48;;;;;;;9.85;4.82;;;;;;;;;;6093909;29;20453;-61
2024/02/29 13:55:54;;;;;;;12.85;5.50;;;;;;;;;;6093319;29;20480;-61
2024/02/29 13:58:58;;;;;;;12.57;5.07;;;;;;;;;;6093243;29;20461;-61
2024/02/29 14:02:03;;;;;;;8.40;5.05;;;;;;;;;;6093356;29;20304;-60
2024/02/29 14:05:08;;;;;;;7.13;5.00;;;;;;;;;;6093187;29;20305;-60
2024/02/29 14:08:12;;;;;;;5.03;4.53;;;;;;;;;;6093886;29;20301;-60
2024/02/29 14:11:17;;;;;;;9.23;4.78;;;;;;;;;;6099624;29;20295;-59
2024/02/29 14:14:21;;;;;;;4.72;4.32;;;;;;;;;;6139832;29;20290;-60
2024/02/29 14:17:25;;;;;;;8.77;5.38;;;;;;;;;;6140443;29;20303;-61
2024/02/29 14:20:29;;;;;;;11.30;4.90;;;;;;;;;;6139580;29;20295;-59
2024/02/29 14:23:33;;;;;;;8.18;5.18;;;;;;;;;;6140211;29;20487;-60
2024/02/29 14:26:38;;;;;;;6.63;4.80;;;;;;;;;;6139905;29;20311;-60
2024/02/29 14:29:42;;;;;;;8.48;5.10;;;;;;;;;;6139338;29;20299;-60
2024/02/29 14:32:47;;;;;;;9.33;5.07;;;;;;;;;;6139666;29;20290;-59
2024/02/29 14:35:50;;;;;;;6.93;5.10;;;;;;;;;;6139357;29;20298;-60
2024/02/29 14:38:54;;;;;;;7.60;5.03;;;;;;;;;;6140025;29;20294;-59
2024/02/29 14:41:59;;;;;;;8.80;4.90;;;;;;;;;;6139421;29;20592;-60
2024/02/29 14:45:04;;;;;;;10.43;4.60;;;;;;;;;;6139366;29;20319;-59
2024/02/29 14:48:08;;;;;;;8.80;4.70;;;;;;;;;;6139573;29;20594;-59
2024/02/29 14:51:12;;;;;;;10.93;4.73;;;;;;;;;;6139097;29;20587;-59
2024/02/29 14:54:16;;;;;;;9.33;5.43;;;;;;;;;;6139036;29;20294;-60
2024/02/29 14:57:21;;;;;;;7.50;5.10;;;;;;;;;;6139462;29;20318;-59
2024/02/29 15:00:27;;;;;;;6.07;4.47;;;;;;;;;;6139440;29;20443;-59
2024/02/29 15:03:31;;;;;;;17.57;5.03;;;;;;;;;;6139064;29;20299;-59
2024/02/29 15:06:35;;;;;;;8.97;4.90;;;;;;;;;;6138851;29;20615;-60
2024/02/29 15:09:39;;;;;;;7.83;4.87;;;;;;;;;;6137954;29;20301;-60
2024/02/29 15:12:45;;;;;;;5.93;5.00;;;;;;;;;;6124129;29;20244;-60
2024/02/29 15:15:49;;;;;;;8.00;4.93;;;;;;;;;;6114676;29;20298;-60
2024/02/29 15:18:53;;;;;;;13.17;5.43;;;;;;;;;;6115180;29;20423;-60
2024/02/29 15:21:57;;;;;;;6.63;4.97;;;;;;;;;;6115083;29;20303;-59
2024/02/29 15:25:03;;;;;;;7.40;4.73;;;;;;;;;;6113801;29;20307;-59
2024/02/29 15:28:10;;;;;;;6.60;5.00;;;;;;;;;;6115047;29;20295;-59
2024/02/29 15:31:14;;;;;;;7.63;4.83;;;;;;;;;;6114787;29;20298;-59
2024/02/29 15:34:17;;;;;;;9.77;4.87;;;;;;;;;;6114788;29;20307;-59
2024/02/29 15:37:21;;;;;;;7.57;4.83;;;;;;;;;;6115052;29;20301;-60
2024/02/29 15:40:25;;;;;;;9.27;5.27;;;;;;;;;;6114532;29;20555;-59
2024/02/29 15:43:31;;;;;;;10.80;5.77;;;;;;;;;;6115154;29;20298;-59
2024/02/29 15:46:35;;;;;;;9.00;5.03;;;;;;;;;;6114139;29;20308;-60
2024/02/29 15:49:39;;;;;;;9.90;5.43;;;;;;;;;;6114543;29;20299;-60
2024/02/29 15:52:43;;;;;;;5.70;5.07;;;;;;;;;;6115430;29;20295;-61
2024/02/29 15:55:48;;;;;;;9.33;5.23;;;;;;;;;;6114855;29;20469;-60
2024/02/29 15:58:53;;;;;;;5.53;5.03;;;;;;;;;;6114971;29;20295;-60
2024/02/29 16:01:58;;;;;;;8.63;5.10;;;;;;;;;;6114587;29;20303;-60
2024/02/29 16:05:02;;;;;;;6.20;5.43;;;;;;;;;;6118216;29;20306;-60
2024/02/29 16:08:06;;;;;;;9.80;5.33;;;;;;;;;;6119561;29;20306;-60
2024/02/29 16:11:10;;;;;;;6.17;5.10;;;;;;;;;;6121465;29;20583;-60
2024/02/29 16:14:15;;;;;;;6.07;5.40;;;;;;;;;;6142294;29;20310;-60
2024/02/29 16:17:19;;;;;;;7.27;5.37;;;;;;;;;;6142861;29;20606;-60
2024/02/29 16:20:23;;;;;;;7.03;5.37;;;;;;;;;;6142166;29;20297;-59
2024/02/29 16:23:26;;;;;;;8.20;5.47;;;;;;;;;;6143328;29;20308;-61
2024/02/29 16:26:30;;;;;;;9.87;5.30;;;;;;;;;;6142408;29;20301;-60
2024/02/29 16:29:35;;;;;;;7.97;5.13;;;;;;;;;;6142277;29;20480;-59
2024/02/29 16:32:39;;;;;;;9.70;5.33;;;;;;;;;;6142858;29;20493;-61
2024/02/29 16:35:49;;;;;;;8.10;4.67;;;;;;;;;;6142135;29;20305;-60
2024/02/29 16:38:53;;;;;;;9.33;4.93;;;;;;;;;;6142828;29;20313;-60
2024/02/29 16:41:57;;;;;;;5.47;4.97;;;;;;;;;;6142405;29;20594;-60
2024/02/29 16:45:02;;;;;;;6.13;4.90;;;;;;;;;;6142313;29;20459;-60
2024/02/29 16:48:06;;;;;;;6.63;4.30;;;;;;;;;;6142396;29;20314;-60
2024/02/29 16:51:10;;;;;;;5.13;4.73;;;;;;;;;;6142145;29;20301;-60
2024/02/29 16:54:14;;;;;;;4.67;4.37;;;;;;;;;;6141702;29;20298;-63
2024/02/29 16:57:18;;;;;;;6.20;5.00;;;;;;;;;;6142299;29;20479;-61
2024/02/29 17:00:23;;;;;;;6.53;4.97;;;;;;;;;;6141510;29;20301;-61
2024/02/29 17:03:27;;;;;;;9.97;5.53;;;;;;;;;;6142081;29;20295;-61
2024/02/29 17:06:31;;;;;;;5.80;5.23;;;;;;;;;;6141489;29;20308;-62
2024/02/29 17:09:35;;;;;;;5.20;4.80;;;;;;;;;;6140993;29;20305;-61
2024/02/29 17:12:42;;;;;;;8.90;4.93;;;;;;;;;;6117878;29;20327;-61
2024/02/29 17:15:47;;;;;;;5.47;4.90;;;;;;;;;;6094254;29;20298;-60
2024/02/29 17:18:51;;;;;;;8.20;5.20;;;;;;;;;;6094485;29;20326;-61
2024/02/29 17:21:55;;;;;;;9.37;5.17;;;;;;;;;;6093812;29;20317;-61
2024/02/29 17:25:01;;;;;;;11.33;5.17;;;;;;;;;;6108153;29;20345;-60
2024/02/29 17:28:07;;;;;;;6.07;4.60;;;;;;;;;;6094553;29;20303;-60
2024/02/29 17:31:12;;;;;;;4.43;4.03;;;;;;;;;;6093651;29;20304;-60
2024/02/29 17:34:16;;;;;;;6.70;4.43;;;;;;;;;;6094033;29;20307;-60
2024/02/29 17:37:20;;;;;;;4.97;3.70;;;;;;;;;;6093726;29;20302;-60
2024/02/29 17:40:27;;;;;;;9.90;5.65;;;;;;;;;;6092056;29;20466;-61
2024/02/29 17:43:31;;;;;;;7.17;4.53;;;;;;;;;;6093628;29;20304;-60
2024/02/29 17:46:36;;;;;;;8.33;4.00;;;;;;;;;;6093208;29;20311;-60
2024/02/29 17:49:41;;;;;;;5.83;4.10;;;;;;;;;;6093509;29;20299;-60
2024/02/29 17:52:45;;;;;;;6.07;4.23;;;;;;;;;;6094117;29;20311;-60
2024/02/29 17:55:49;;;;;;;6.30;3.93;;;;;;;;;;6093272;29;20296;-60
2024/02/29 17:58:52;;;;;;;8.13;3.90;;;;;;;;;;6094194;29;20302;-61
2024/02/29 18:01:58;;;;;;;4.83;4.00;;;;;;;;;;6093474;29;20299;-59
2024/02/29 18:05:02;;;;;;;7.43;4.17;;;;;;;;;;6093279;29;20477;-60
2024/02/29 18:08:06;;;;;;;6.23;4.10;;;;;;;;;;6094028;29;20308;-60
2024/02/29 18:11:10;;;;;;;8.07;4.23;;;;;;;;;;6098311;29;20310;-61
2024/02/29 18:14:15;;;;;;;4.53;4.13;;;;;;;;;;6140432;29;20310;-61
2024/02/29 18:17:20;;;;;;;4.97;3.90;;;;;;;;;;6140632;29;20304;-60